Time,TemperatureF,DewpointF,PressureIn,WindDirection,WindDirectionDegrees,WindSpeedMPH,WindSpeedGustMPH,Humidity,HourlyPrecipIn,Conditions,Clouds,dailyrainin,SolarRadiationWatts/m^2,SoftwareType,DateUTC
2013-06-07 00:00:00,52.0,42.0,-100.00,NNE,22,1.0,-999.0,68,-99.99,,,-99.99,0.000000,,2013-06-07 05:00:00,
2013-06-07 00:32:00,52.0,42.0,-100.00,NNE,22,1.0,-999.0,68,-99.99,,,-99.99,0.000000,,2013-06-07 05:32:00,
2013-06-07 00:42:00,52.0,42.0,-100.00,NNE,22,1.0,-999.0,68,-99.99,,,-99.99,0.000000,,2013-06-07 05:42:00,
2013-06-07 00:52:00,52.0,42.0,-100.00,NNE,22,1.0,-999.0,68,-99.99,,,-99.99,0.000000,,2013-06-07 05:52:00,
2013-06-07 01:00:00,52.0,43.0,-100.00,NNE,22,1.0,-999.0,70,-99.99,,,-99.99,0.000000,,2013-06-07 06:00:00,
2013-06-07 01:32:00,52.0,43.0,-100.00,NNE,22,1.0,-999.0,70,-99.99,,,-99.99,0.000000,,2013-06-07 06:32:00,
2013-06-07 01:43:00,52.0,43.0,-100.00,NNE,22,1.0,-999.0,70,-99.99,,,-99.99,0.000000,,2013-06-07 06:43:00,
2013-06-07 01:52:00,52.0,43.0,-100.00,NNE,22,1.0,-999.0,70,-99.99,,,-99.99,0.000000,,2013-06-07 06:52:00,
2013-06-07 02:00:00,52.0,43.0,-100.00,NNE,22,1.0,-999.0,72,-99.99,,,-99.99,0.000000,,2013-06-07 07:00:00,
2013-06-07 02:32:00,52.0,43.0,-100.00,NNE,22,1.0,-999.0,72,-99.99,,,-99.99,0.000000,,2013-06-07 07:32:00,
2013-06-07 02:42:00,52.0,43.0,-100.00,NNE,22,1.0,-999.0,72,-99.99,,,-99.99,0.000000,,2013-06-07 07:42:00,
2013-06-07 02:52:00,52.0,43.0,-100.00,NNE,22,1.0,-999.0,72,-99.99,,,-99.99,0.000000,,2013-06-07 07:52:00,
2013-06-07 03:00:00,52.0,43.0,-100.00,NNE,22,1.0,-999.0,71,-99.99,,,-99.99,0.000000,,2013-06-07 08:00:00,
2013-06-07 03:32:00,52.0,43.0,-100.00,NNE,22,1.0,-999.0,71,-99.99,,,-99.99,0.000000,,2013-06-07 08:32:00,
2013-06-07 03:43:00,52.0,43.0,-100.00,NNE,22,1.0,-999.0,71,-99.99,,,-99.99,0.000000,,2013-06-07 08:43:00,
2013-06-07 03:52:00,52.0,43.0,-100.00,NNE,22,1.0,-999.0,71,-99.99,,,-99.99,0.000000,,2013-06-07 08:52:00,
2013-06-07 04:00:00,52.0,41.0,-100.00,NNE,22,1.0,-999.0,67,-99.99,,,-99.99,0.000000,,2013-06-07 09:00:00,
2013-06-07 04:32:00,52.0,41.0,-100.00,NNE,22,1.0,-999.0,67,-99.99,,,-99.99,0.000000,,2013-06-07 09:32:00,
2013-06-07 04:43:00,52.0,41.0,-100.00,NNE,22,1.0,-999.0,67,-99.99,,,-99.99,0.000000,,2013-06-07 09:43:00,
2013-06-07 04:53:00,52.0,41.0,-100.00,NNE,22,1.0,-999.0,67,-99.99,,,-99.99,0.000000,,2013-06-07 09:53:00,
2013-06-07 05:00:00,52.0,40.0,-100.00,NNE,22,1.0,-999.0,65,-99.99,,,-99.99,0.000000,,2013-06-07 10:00:00,
2013-06-07 05:33:00,52.0,40.0,-100.00,NNE,22,1.0,-999.0,65,-99.99,,,-99.99,0.000000,,2013-06-07 10:33:00,
2013-06-07 05:43:00,52.0,40.0,-100.00,NNE,22,1.0,-999.0,65,-99.99,,,-99.99,0.000000,,2013-06-07 10:43:00,
2013-06-07 05:53:00,52.0,40.0,-100.00,NNE,22,1.0,-999.0,65,-99.99,,,-99.99,0.000000,,2013-06-07 10:53:00,
2013-06-07 06:00:00,51.0,41.0,-100.00,NE,45,0.0,-999.0,70,-99.99,,,-99.99,6.960000,,2013-06-07 11:00:00,
2013-06-07 06:32:00,51.0,41.0,-100.00,NE,45,0.0,-999.0,70,-99.99,,,-99.99,6.960000,,2013-06-07 11:32:00,
2013-06-07 06:42:00,51.0,41.0,-100.00,NE,45,0.0,-999.0,70,-99.99,,,-99.99,6.960000,,2013-06-07 11:42:00,
2013-06-07 06:52:00,51.0,41.0,-100.00,NE,45,0.0,-999.0,70,-99.99,,,-99.99,6.960000,,2013-06-07 11:52:00,
2013-06-07 07:00:00,51.0,43.0,-100.00,NNE,22,0.0,-999.0,73,-99.99,,,-99.99,40.599998,,2013-06-07 12:00:00,
2013-06-07 07:33:00,51.0,43.0,-100.00,NNE,22,0.0,-999.0,73,-99.99,,,-99.99,40.599998,,2013-06-07 12:33:00,
2013-06-07 07:42:00,51.0,43.0,-100.00,NNE,22,0.0,-999.0,73,-99.99,,,-99.99,40.599998,,2013-06-07 12:42:00,
2013-06-07 07:52:00,51.0,43.0,-100.00,NNE,22,0.0,-999.0,73,-99.99,,,-99.99,40.599998,,2013-06-07 12:52:00,
2013-06-07 08:00:00,53.0,42.0,-100.00,North,0,1.0,-999.0,67,-99.99,,,-99.99,105.559998,,2013-06-07 13:00:00,
2013-06-07 08:32:00,53.0,42.0,-100.00,North,0,1.0,-999.0,67,-99.99,,,-99.99,105.559998,,2013-06-07 13:32:00,
2013-06-07 08:43:00,53.0,42.0,-100.00,North,0,1.0,-999.0,67,-99.99,,,-99.99,105.559998,,2013-06-07 13:43:00,
2013-06-07 08:52:00,53.0,42.0,-100.00,North,0,1.0,-999.0,67,-99.99,,,-99.99,105.559998,,2013-06-07 13:52:00,
2013-06-07 09:00:00,55.0,42.0,-100.00,NNE,22,2.0,-999.0,63,-99.99,,,-99.99,187.919998,,2013-06-07 14:00:00,
2013-06-07 09:33:00,55.0,42.0,-100.00,NNE,22,2.0,-999.0,63,-99.99,,,-99.99,187.919998,,2013-06-07 14:33:00,
2013-06-07 09:42:00,55.0,42.0,-100.00,NNE,22,2.0,-999.0,63,-99.99,,,-99.99,187.919998,,2013-06-07 14:42:00,
2013-06-07 09:52:00,55.0,42.0,-100.00,NNE,22,2.0,-999.0,63,-99.99,,,-99.99,187.919998,,2013-06-07 14:52:00,
2013-06-07 10:00:00,61.0,42.0,-100.00,NNE,22,2.0,-999.0,48,-99.99,,,-99.99,770.239990,,2013-06-07 15:00:00,
2013-06-07 10:33:00,61.0,42.0,-100.00,NNE,22,2.0,-999.0,48,-99.99,,,-99.99,770.239990,,2013-06-07 15:33:00,
2013-06-07 10:43:00,61.0,42.0,-100.00,NNE,22,2.0,-999.0,48,-99.99,,,-99.99,770.239990,,2013-06-07 15:43:00,
2013-06-07 10:53:00,61.0,42.0,-100.00,NNE,22,2.0,-999.0,48,-99.99,,,-99.99,770.239990,,2013-06-07 15:53:00,
2013-06-07 11:00:00,65.0,40.0,-100.00,North,0,3.0,-999.0,39,-99.99,,,-99.99,868.840027,,2013-06-07 16:00:00,
2013-06-07 11:33:00,65.0,40.0,-100.00,North,0,3.0,-999.0,39,-99.99,,,-99.99,868.840027,,2013-06-07 16:33:00,
2013-06-07 11:43:00,65.0,40.0,-100.00,North,0,3.0,-999.0,39,-99.99,,,-99.99,868.840027,,2013-06-07 16:43:00,
2013-06-07 11:53:00,65.0,40.0,-100.00,North,0,3.0,-999.0,39,-99.99,,,-99.99,868.840027,,2013-06-07 16:53:00,
2013-06-07 12:00:00,66.0,41.0,-100.00,North,0,4.0,-999.0,39,-99.99,,,-99.99,750.520020,,2013-06-07 17:00:00,
2013-06-07 12:32:00,66.0,41.0,-100.00,North,0,4.0,-999.0,39,-99.99,,,-99.99,750.520020,,2013-06-07 17:32:00,
2013-06-07 12:43:00,66.0,41.0,-100.00,North,0,4.0,-999.0,39,-99.99,,,-99.99,750.520020,,2013-06-07 17:43:00,
2013-06-07 12:52:00,66.0,41.0,-100.00,North,0,4.0,-999.0,39,-99.99,,,-99.99,750.520020,,2013-06-07 17:52:00,
2013-06-07 14:00:00,67.0,38.0,-100.00,NNW,337,4.0,-999.0,34,-99.99,,,-99.99,926.840027,,2013-06-07 19:00:00,
2013-06-07 14:40:00,67.0,38.0,-100.00,NNW,337,4.0,-999.0,34,-99.99,,,-99.99,926.840027,,2013-06-07 19:40:00,
2013-06-07 14:59:00,67.0,38.0,-100.00,NNW,337,4.0,-999.0,34,-99.99,,,-99.99,926.840027,,2013-06-07 19:59:00,
2013-06-07 15:00:00,69.0,39.0,-100.00,NNW,337,4.0,-999.0,33,-99.99,,,-99.99,870.000000,,2013-06-07 20:00:00,
2013-06-07 15:41:00,69.0,39.0,-100.00,NNW,337,4.0,-999.0,33,-99.99,,,-99.99,870.000000,,2013-06-07 20:41:00,
2013-06-07 15:51:00,69.0,39.0,-100.00,NNW,337,4.0,-999.0,33,-99.99,,,-99.99,870.000000,,2013-06-07 20:51:00,
2013-06-07 15:58:00,69.0,39.0,-100.00,NNW,337,4.0,-999.0,33,-99.99,,,-99.99,870.000000,,2013-06-07 20:58:00,
2013-06-07 16:00:00,69.0,42.0,-100.00,WNW,292,4.0,-999.0,37,-99.99,,,-99.99,763.280029,,2013-06-07 21:00:00,
2013-06-07 16:43:00,69.0,42.0,-100.00,WNW,292,4.0,-999.0,37,-99.99,,,-99.99,763.280029,,2013-06-07 21:43:00,
2013-06-07 17:00:00,70.0,42.0,-100.00,WNW,292,3.0,-999.0,36,-99.99,,,-99.99,620.599976,,2013-06-07 22:00:00,
2013-06-07 18:41:00,70.0,42.0,-100.00,WNW,292,3.0,-999.0,36,-99.99,,,-99.99,460.519989,,2013-06-07 23:41:00,
2013-06-07 18:55:00,70.0,42.0,-100.00,WNW,292,3.0,-999.0,36,-99.99,,,-99.99,460.519989,,2013-06-07 23:55:00,
2013-06-07 19:00:00,69.0,42.0,-100.00,WNW,292,1.0,-999.0,37,-99.99,,,-99.99,279.559998,,2013-06-08 00:00:00,
2013-06-07 19:37:00,69.0,42.0,-100.00,WNW,292,1.0,-999.0,37,-99.99,,,-99.99,279.559998,,2013-06-08 00:37:00,
2013-06-07 20:00:00,65.0,45.0,-100.00,WNW,292,0.0,-999.0,48,-99.99,,,-99.99,104.400002,,2013-06-08 01:00:00,
2013-06-07 20:40:00,65.0,45.0,-100.00,WNW,292,0.0,-999.0,48,-99.99,,,-99.99,104.400002,,2013-06-08 01:40:00,
2013-06-07 21:00:00,54.0,47.0,-100.00,West,270,0.0,-999.0,75,-99.99,,,-99.99,11.600000,,2013-06-08 02:00:00,
2013-06-07 21:37:00,54.0,47.0,-100.00,West,270,0.0,-999.0,75,-99.99,,,-99.99,11.600000,,2013-06-08 02:37:00,
2013-06-07 21:59:00,54.0,47.0,-100.00,West,270,0.0,-999.0,75,-99.99,,,-99.99,11.600000,,2013-06-08 02:59:00,
2013-06-07 22:40:00,46.0,43.0,-100.00,West,270,0.0,-999.0,89,-99.99,,,-99.99,0.000000,,2013-06-08 03:40:00,
2013-06-07 23:00:00,45.0,43.0,-100.00,SW,225,0.0,-999.0,91,-99.99,,,-99.99,0.000000,,2013-06-08 04:00:00,
2013-06-07 23:33:00,45.0,43.0,-100.00,SW,225,0.0,-999.0,91,-99.99,,,-99.99,0.000000,,2013-06-08 04:33:00,
2013-06-07 23:42:00,45.0,43.0,-100.00,SW,225,0.0,-999.0,91,-99.99,,,-99.99,0.000000,,2013-06-08 04:42:00,
2013-06-07 23:53:00,45.0,43.0,-100.00,SW,225,0.0,-999.0,91,-99.99,,,-99.99,0.000000,,2013-06-08 04:53:00,